sensor_id;sensor_type;location;lat;lon;timestamp;temperature;humidity
4312;DHT22;2169;49.086;9.284;2023-08-24T00:01:13;22.00;57.40
4312;DHT22;2169;49.086;9.284;2023-08-24T00:03:40;22.00;57.50
4312;DHT22;2169;49.086;9.284;2023-08-24T00:06:08;21.90;57.50
4312;DHT22;2169;49.086;9.284;2023-08-24T00:08:36;21.90;57.70
4312;DHT22;2169;49.086;9.284;2023-08-24T00:11:02;21.80;57.80
4312;DHT22;2169;49.086;9.284;2023-08-24T00:13:29;21.80;57.90
4312;DHT22;2169;49.086;9.284;2023-08-24T00:15:56;21.70;58.00
4312;DHT22;2169;49.086;9.284;2023-08-24T00:18:24;21.70;58.10
4312;DHT22;2169;49.086;9.284;2023-08-24T00:20:51;21.60;58.10
4312;DHT22;2169;49.086;9.284;2023-08-24T00:23:19;21.60;58.20
4312;DHT22;2169;49.086;9.284;2023-08-24T00:25:46;21.60;58.40
4312;DHT22;2169;49.086;9.284;2023-08-24T00:28:13;21.60;58.40
4312;DHT22;2169;49.086;9.284;2023-08-24T00:30:40;21.50;58.50
4312;DHT22;2169;49.086;9.284;2023-08-24T00:33:06;21.50;58.50
4312;DHT22;2169;49.086;9.284;2023-08-24T00:35:33;21.50;58.60
4312;DHT22;2169;49.086;9.284;2023-08-24T00:38:00;21.50;58.60
4312;DHT22;2169;49.086;9.284;2023-08-24T00:40:28;21.50;58.70
4312;DHT22;2169;49.086;9.284;2023-08-24T00:42:55;21.50;58.70
4312;DHT22;2169;49.086;9.284;2023-08-24T00:45:21;21.40;58.80
4312;DHT22;2169;49.086;9.284;2023-08-24T00:47:48;21.40;58.80
4312;DHT22;2169;49.086;9.284;2023-08-24T00:50:16;21.30;58.80
4312;DHT22;2169;49.086;9.284;2023-08-24T00:52:44;21.30;58.90
4312;DHT22;2169;49.086;9.284;2023-08-24T00:55:11;21.30;59.00
4312;DHT22;2169;49.086;9.284;2023-08-24T00:57:40;21.20;59.10
4312;DHT22;2169;49.086;9.284;2023-08-24T01:00:07;21.20;59.20
4312;DHT22;2169;49.086;9.284;2023-08-24T01:02:35;21.20;59.30
4312;DHT22;2169;49.086;9.284;2023-08-24T01:05:02;21.20;59.40
4312;DHT22;2169;49.086;9.284;2023-08-24T01:07:30;21.20;59.50
4312;DHT22;2169;49.086;9.284;2023-08-24T01:09:57;21.20;59.50
4312;DHT22;2169;49.086;9.284;2023-08-24T01:12:28;21.10;59.40
4312;DHT22;2169;49.086;9.284;2023-08-24T01:15:05;21.10;59.50
4312;DHT22;2169;49.086;9.284;2023-08-24T01:17:35;21.10;59.60
4312;DHT22;2169;49.086;9.284;2023-08-24T01:20:04;21.10;59.70
4312;DHT22;2169;49.086;9.284;2023-08-24T01:22:36;21.00;59.80
4312;DHT22;2169;49.086;9.284;2023-08-24T01:25:13;21.00;59.90
4312;DHT22;2169;49.086;9.284;2023-08-24T01:27:43;21.00;60.00
4312;DHT22;2169;49.086;9.284;2023-08-24T01:30:11;21.00;60.00
4312;DHT22;2169;49.086;9.284;2023-08-24T01:32:38;20.90;60.00
4312;DHT22;2169;49.086;9.284;2023-08-24T01:35:07;20.90;60.70
4312;DHT22;2169;49.086;9.284;2023-08-24T01:37:35;20.90;60.10
4312;DHT22;2169;49.086;9.284;2023-08-24T01:40:05;20.80;60.20
4312;DHT22;2169;49.086;9.284;2023-08-24T01:42:35;20.80;60.30
4312;DHT22;2169;49.086;9.284;2023-08-24T01:45:06;20.80;60.40
4312;DHT22;2169;49.086;9.284;2023-08-24T01:47:35;20.80;60.50
4312;DHT22;2169;49.086;9.284;2023-08-24T01:50:03;20.80;60.40
4312;DHT22;2169;49.086;9.284;2023-08-24T01:52:31;20.80;60.40
4312;DHT22;2169;49.086;9.284;2023-08-24T01:54:58;20.70;60.40
4312;DHT22;2169;49.086;9.284;2023-08-24T01:57:25;20.70;60.40
4312;DHT22;2169;49.086;9.284;2023-08-24T01:59:52;20.70;60.50
4312;DHT22;2169;49.086;9.284;2023-08-24T02:02:20;20.70;60.50
4312;DHT22;2169;49.086;9.284;2023-08-24T02:04:47;20.70;60.60
4312;DHT22;2169;49.086;9.284;2023-08-24T02:07:14;20.60;60.50
4312;DHT22;2169;49.086;9.284;2023-08-24T02:09:41;20.60;60.60
4312;DHT22;2169;49.086;9.284;2023-08-24T02:12:07;20.60;60.70
4312;DHT22;2169;49.086;9.284;2023-08-24T02:14:34;20.50;60.60
4312;DHT22;2169;49.086;9.284;2023-08-24T02:17:01;20.50;60.70
4312;DHT22;2169;49.086;9.284;2023-08-24T02:19:30;20.50;60.80
4312;DHT22;2169;49.086;9.284;2023-08-24T02:21:57;20.40;61.00
4312;DHT22;2169;49.086;9.284;2023-08-24T02:24:24;20.30;61.00
4312;DHT22;2169;49.086;9.284;2023-08-24T02:26:50;20.20;61.20
4312;DHT22;2169;49.086;9.284;2023-08-24T02:29:17;20.20;61.30
4312;DHT22;2169;49.086;9.284;2023-08-24T02:31:44;20.20;61.40
4312;DHT22;2169;49.086;9.284;2023-08-24T02:34:11;20.20;61.50
4312;DHT22;2169;49.086;9.284;2023-08-24T02:36:39;20.20;61.60
4312;DHT22;2169;49.086;9.284;2023-08-24T02:39:05;20.20;61.60
4312;DHT22;2169;49.086;9.284;2023-08-24T02:41:33;20.10;61.60
4312;DHT22;2169;49.086;9.284;2023-08-24T02:44:00;20.10;61.70
4312;DHT22;2169;49.086;9.284;2023-08-24T02:46:27;20.10;61.70
4312;DHT22;2169;49.086;9.284;2023-08-24T02:48:54;20.10;61.80
4312;DHT22;2169;49.086;9.284;2023-08-24T02:51:21;20.10;61.90
4312;DHT22;2169;49.086;9.284;2023-08-24T02:53:50;20.10;61.80
4312;DHT22;2169;49.086;9.284;2023-08-24T02:56:17;20.10;61.80
4312;DHT22;2169;49.086;9.284;2023-08-24T02:58:43;20.10;61.90
4312;DHT22;2169;49.086;9.284;2023-08-24T03:01:10;20.00;61.90
4312;DHT22;2169;49.086;9.284;2023-08-24T03:03:37;20.00;62.10
4312;DHT22;2169;49.086;9.284;2023-08-24T03:06:06;20.00;62.20
4312;DHT22;2169;49.086;9.284;2023-08-24T03:08:33;20.00;62.30
4312;DHT22;2169;49.086;9.284;2023-08-24T03:11:02;20.00;62.30
4312;DHT22;2169;49.086;9.284;2023-08-24T03:13:30;20.00;62.40
4312;DHT22;2169;49.086;9.284;2023-08-24T03:15:57;20.00;62.30
4312;DHT22;2169;49.086;9.284;2023-08-24T03:18:24;20.00;62.30
4312;DHT22;2169;49.086;9.284;2023-08-24T03:20:50;19.90;62.30
4312;DHT22;2169;49.086;9.284;2023-08-24T03:23:17;19.90;62.30
4312;DHT22;2169;49.086;9.284;2023-08-24T03:25:44;19.90;62.40
4312;DHT22;2169;49.086;9.284;2023-08-24T03:28:12;19.90;62.40
4312;DHT22;2169;49.086;9.284;2023-08-24T03:30:44;19.90;62.80
4312;DHT22;2169;49.086;9.284;2023-08-24T03:33:11;19.90;62.50
4312;DHT22;2169;49.086;9.284;2023-08-24T03:35:39;19.80;62.40
4312;DHT22;2169;49.086;9.284;2023-08-24T03:38:06;19.70;62.50
4312;DHT22;2169;49.086;9.284;2023-08-24T03:40:32;19.70;62.70
4312;DHT22;2169;49.086;9.284;2023-08-24T03:43:02;19.70;62.80
4312;DHT22;2169;49.086;9.284;2023-08-24T03:45:30;19.70;62.90
4312;DHT22;2169;49.086;9.284;2023-08-24T03:47:57;19.60;62.90
4312;DHT22;2169;49.086;9.284;2023-08-24T03:50:24;19.60;63.00
4312;DHT22;2169;49.086;9.284;2023-08-24T03:52:52;19.60;63.10
4312;DHT22;2169;49.086;9.284;2023-08-24T03:55:19;19.70;63.20
4312;DHT22;2169;49.086;9.284;2023-08-24T03:57:46;19.60;63.00
4312;DHT22;2169;49.086;9.284;2023-08-24T04:00:14;19.60;63.00
4312;DHT22;2169;49.086;9.284;2023-08-24T04:02:42;19.70;63.10
4312;DHT22;2169;49.086;9.284;2023-08-24T04:05:08;19.70;63.20
4312;DHT22;2169;49.086;9.284;2023-08-24T04:07:35;19.70;63.20
4312;DHT22;2169;49.086;9.284;2023-08-24T04:10:04;19.70;63.20
4312;DHT22;2169;49.086;9.284;2023-08-24T04:12:31;19.70;63.20
4312;DHT22;2169;49.086;9.284;2023-08-24T04:14:58;19.70;63.30
4312;DHT22;2169;49.086;9.284;2023-08-24T04:17:25;19.70;63.30
4312;DHT22;2169;49.086;9.284;2023-08-24T04:19:53;19.60;63.30
4312;DHT22;2169;49.086;9.284;2023-08-24T04:22:20;19.60;63.50
4312;DHT22;2169;49.086;9.284;2023-08-24T04:24:47;19.60;63.60
4312;DHT22;2169;49.086;9.284;2023-08-24T04:27:14;19.60;63.70
4312;DHT22;2169;49.086;9.284;2023-08-24T04:29:41;19.60;63.70
4312;DHT22;2169;49.086;9.284;2023-08-24T04:32:08;19.60;63.70
4312;DHT22;2169;49.086;9.284;2023-08-24T04:34:35;19.60;63.80
4312;DHT22;2169;49.086;9.284;2023-08-24T04:37:03;19.60;63.90
4312;DHT22;2169;49.086;9.284;2023-08-24T04:39:29;19.60;64.10
4312;DHT22;2169;49.086;9.284;2023-08-24T04:41:56;19.60;64.10
4312;DHT22;2169;49.086;9.284;2023-08-24T04:44:23;19.50;64.10
4312;DHT22;2169;49.086;9.284;2023-08-24T04:46:50;19.50;64.90
4312;DHT22;2169;49.086;9.284;2023-08-24T04:49:17;19.50;64.30
4312;DHT22;2169;49.086;9.284;2023-08-24T04:51:44;19.60;64.40
4312;DHT22;2169;49.086;9.284;2023-08-24T04:54:12;19.60;64.40
4312;DHT22;2169;49.086;9.284;2023-08-24T04:56:39;19.60;64.40
4312;DHT22;2169;49.086;9.284;2023-08-24T04:59:05;19.60;64.40
4312;DHT22;2169;49.086;9.284;2023-08-24T05:01:33;19.70;64.50
4312;DHT22;2169;49.086;9.284;2023-08-24T05:04:01;19.70;64.50
4312;DHT22;2169;49.086;9.284;2023-08-24T05:06:27;19.70;64.50
4312;DHT22;2169;49.086;9.284;2023-08-24T05:08:54;19.70;64.60
4312;DHT22;2169;49.086;9.284;2023-08-24T05:11:26;19.70;64.60
4312;DHT22;2169;49.086;9.284;2023-08-24T05:13:54;19.70;64.70
4312;DHT22;2169;49.086;9.284;2023-08-24T05:16:21;19.70;64.70
4312;DHT22;2169;49.086;9.284;2023-08-24T05:18:48;19.70;64.70
4312;DHT22;2169;49.086;9.284;2023-08-24T05:21:15;19.70;64.80
4312;DHT22;2169;49.086;9.284;2023-08-24T05:23:42;19.70;64.90
4312;DHT22;2169;49.086;9.284;2023-08-24T05:26:08;19.70;64.90
4312;DHT22;2169;49.086;9.284;2023-08-24T05:28:36;19.70;64.80
4312;DHT22;2169;49.086;9.284;2023-08-24T05:31:03;19.80;64.90
4312;DHT22;2169;49.086;9.284;2023-08-24T05:33:30;19.80;64.90
4312;DHT22;2169;49.086;9.284;2023-08-24T05:35:58;19.80;64.90
4312;DHT22;2169;49.086;9.284;2023-08-24T05:38:25;19.90;65.00
4312;DHT22;2169;49.086;9.284;2023-08-24T05:40:52;19.90;65.00
4312;DHT22;2169;49.086;9.284;2023-08-24T05:43:19;19.90;65.10
4312;DHT22;2169;49.086;9.284;2023-08-24T05:45:48;19.90;65.10
4312;DHT22;2169;49.086;9.284;2023-08-24T05:48:15;19.90;65.20
4312;DHT22;2169;49.086;9.284;2023-08-24T05:50:45;20.00;65.20
4312;DHT22;2169;49.086;9.284;2023-08-24T05:53:12;20.00;65.20
4312;DHT22;2169;49.086;9.284;2023-08-24T05:55:39;20.00;65.30
4312;DHT22;2169;49.086;9.284;2023-08-24T05:58:06;20.10;65.30
4312;DHT22;2169;49.086;9.284;2023-08-24T06:00:32;20.10;65.40
4312;DHT22;2169;49.086;9.284;2023-08-24T06:03:01;20.20;65.40
4312;DHT22;2169;49.086;9.284;2023-08-24T06:05:29;20.20;65.40
4312;DHT22;2169;49.086;9.284;2023-08-24T06:07:56;20.30;65.40
4312;DHT22;2169;49.086;9.284;2023-08-24T06:10:23;20.30;65.40
4312;DHT22;2169;49.086;9.284;2023-08-24T06:12:51;20.40;65.40
4312;DHT22;2169;49.086;9.284;2023-08-24T06:15:18;20.40;65.30
4312;DHT22;2169;49.086;9.284;2023-08-24T06:17:46;20.50;65.40
4312;DHT22;2169;49.086;9.284;2023-08-24T06:20:14;20.60;65.50
4312;DHT22;2169;49.086;9.284;2023-08-24T06:22:41;20.60;65.50
4312;DHT22;2169;49.086;9.284;2023-08-24T06:25:09;20.70;65.60
4312;DHT22;2169;49.086;9.284;2023-08-24T06:27:36;20.80;65.70
4312;DHT22;2169;49.086;9.284;2023-08-24T06:30:03;20.90;65.80
4312;DHT22;2169;49.086;9.284;2023-08-24T06:32:30;21.00;65.90
4312;DHT22;2169;49.086;9.284;2023-08-24T06:34:57;21.10;65.90
4312;DHT22;2169;49.086;9.284;2023-08-24T06:37:25;21.20;65.80
4312;DHT22;2169;49.086;9.284;2023-08-24T06:39:52;21.30;65.80
4312;DHT22;2169;49.086;9.284;2023-08-24T06:42:18;21.40;65.70
4312;DHT22;2169;49.086;9.284;2023-08-24T06:44:45;21.50;65.60
4312;DHT22;2169;49.086;9.284;2023-08-24T06:47:15;21.50;65.50
4312;DHT22;2169;49.086;9.284;2023-08-24T06:49:42;21.50;65.40
4312;DHT22;2169;49.086;9.284;2023-08-24T06:52:08;21.60;65.40
4312;DHT22;2169;49.086;9.284;2023-08-24T06:54:37;21.60;65.40
4312;DHT22;2169;49.086;9.284;2023-08-24T06:57:04;21.70;65.30
4312;DHT22;2169;49.086;9.284;2023-08-24T06:59:30;21.70;65.20
4312;DHT22;2169;49.086;9.284;2023-08-24T07:01:57;21.80;65.20
4312;DHT22;2169;49.086;9.284;2023-08-24T07:04:25;21.80;65.10
4312;DHT22;2169;49.086;9.284;2023-08-24T07:06:51;21.90;64.90
4312;DHT22;2169;49.086;9.284;2023-08-24T07:09:19;22.00;64.90
4312;DHT22;2169;49.086;9.284;2023-08-24T07:11:48;22.00;64.70
4312;DHT22;2169;49.086;9.284;2023-08-24T07:14:14;22.10;64.70
4312;DHT22;2169;49.086;9.284;2023-08-24T07:16:41;22.10;64.40
4312;DHT22;2169;49.086;9.284;2023-08-24T07:19:08;22.20;64.30
4312;DHT22;2169;49.086;9.284;2023-08-24T07:21:35;22.30;64.00
4312;DHT22;2169;49.086;9.284;2023-08-24T07:24:02;22.30;63.70
4312;DHT22;2169;49.086;9.284;2023-08-24T07:26:29;22.40;63.60
4312;DHT22;2169;49.086;9.284;2023-08-24T07:28:58;22.40;63.40
4312;DHT22;2169;49.086;9.284;2023-08-24T07:31:25;22.50;63.00
4312;DHT22;2169;49.086;9.284;2023-08-24T07:33:52;22.60;62.80
4312;DHT22;2169;49.086;9.284;2023-08-24T07:36:18;22.70;62.60
4312;DHT22;2169;49.086;9.284;2023-08-24T07:38:45;22.70;62.40
4312;DHT22;2169;49.086;9.284;2023-08-24T07:41:13;22.80;62.20
4312;DHT22;2169;49.086;9.284;2023-08-24T07:43:39;22.80;62.10
4312;DHT22;2169;49.086;9.284;2023-08-24T07:46:08;22.80;61.90
4312;DHT22;2169;49.086;9.284;2023-08-24T07:48:34;22.90;61.90
4312;DHT22;2169;49.086;9.284;2023-08-24T07:51:01;23.00;61.80
4312;DHT22;2169;49.086;9.284;2023-08-24T07:53:28;23.00;61.60
4312;DHT22;2169;49.086;9.284;2023-08-24T07:55:55;23.10;61.50
4312;DHT22;2169;49.086;9.284;2023-08-24T07:58:23;23.20;61.40
4312;DHT22;2169;49.086;9.284;2023-08-24T08:00:49;23.30;61.20
4312;DHT22;2169;49.086;9.284;2023-08-24T08:03:18;23.40;61.10
4312;DHT22;2169;49.086;9.284;2023-08-24T08:05:45;23.60;61.10
4312;DHT22;2169;49.086;9.284;2023-08-24T08:08:12;23.70;60.80
4312;DHT22;2169;49.086;9.284;2023-08-24T08:10:39;23.90;60.70
4312;DHT22;2169;49.086;9.284;2023-08-24T08:13:07;24.10;60.60
4312;DHT22;2169;49.086;9.284;2023-08-24T08:15:33;24.30;60.40
4312;DHT22;2169;49.086;9.284;2023-08-24T08:18:01;24.50;60.20
4312;DHT22;2169;49.086;9.284;2023-08-24T08:20:29;24.70;60.00
4312;DHT22;2169;49.086;9.284;2023-08-24T08:22:56;24.90;59.70
4312;DHT22;2169;49.086;9.284;2023-08-24T08:25:23;25.10;59.30
4312;DHT22;2169;49.086;9.284;2023-08-24T08:27:49;25.30;59.60
4312;DHT22;2169;49.086;9.284;2023-08-24T08:30:16;25.50;58.80
4312;DHT22;2169;49.086;9.284;2023-08-24T08:32:45;25.60;58.40
4312;DHT22;2169;49.086;9.284;2023-08-24T08:35:12;25.80;58.10
4312;DHT22;2169;49.086;9.284;2023-08-24T08:37:40;26.00;57.80
4312;DHT22;2169;49.086;9.284;2023-08-24T08:40:10;26.10;57.30
4312;DHT22;2169;49.086;9.284;2023-08-24T08:42:37;26.30;57.20
4312;DHT22;2169;49.086;9.284;2023-08-24T08:45:08;26.50;57.00
4312;DHT22;2169;49.086;9.284;2023-08-24T08:47:35;26.60;56.60
4312;DHT22;2169;49.086;9.284;2023-08-24T08:50:03;26.80;56.40
4312;DHT22;2169;49.086;9.284;2023-08-24T08:52:31;26.90;56.20
4312;DHT22;2169;49.086;9.284;2023-08-24T08:55:00;27.10;55.90
4312;DHT22;2169;49.086;9.284;2023-08-24T08:57:27;27.20;55.50
4312;DHT22;2169;49.086;9.284;2023-08-24T08:59:54;27.30;55.30
4312;DHT22;2169;49.086;9.284;2023-08-24T09:02:23;27.50;55.10
4312;DHT22;2169;49.086;9.284;2023-08-24T09:04:51;27.60;54.90
4312;DHT22;2169;49.086;9.284;2023-08-24T09:07:17;27.80;54.80
4312;DHT22;2169;49.086;9.284;2023-08-24T09:09:46;28.00;54.70
4312;DHT22;2169;49.086;9.284;2023-08-24T09:12:14;28.10;54.30
4312;DHT22;2169;49.086;9.284;2023-08-24T09:14:41;28.30;54.00
4312;DHT22;2169;49.086;9.284;2023-08-24T09:17:08;28.50;53.70
4312;DHT22;2169;49.086;9.284;2023-08-24T09:19:34;28.70;53.50
4312;DHT22;2169;49.086;9.284;2023-08-24T09:22:04;28.90;53.20
4312;DHT22;2169;49.086;9.284;2023-08-24T09:24:31;29.00;52.80
4312;DHT22;2169;49.086;9.284;2023-08-24T09:26:58;29.20;52.50
4312;DHT22;2169;49.086;9.284;2023-08-24T09:29:26;29.30;52.10
4312;DHT22;2169;49.086;9.284;2023-08-24T09:31:53;29.50;51.80
4312;DHT22;2169;49.086;9.284;2023-08-24T09:34:22;29.60;51.40
4312;DHT22;2169;49.086;9.284;2023-08-24T09:36:52;29.70;51.10
4312;DHT22;2169;49.086;9.284;2023-08-24T09:39:18;29.90;50.80
4312;DHT22;2169;49.086;9.284;2023-08-24T09:41:50;30.00;50.60
4312;DHT22;2169;49.086;9.284;2023-08-24T09:44:17;30.10;50.50
4312;DHT22;2169;49.086;9.284;2023-08-24T09:46:46;30.20;50.30
4312;DHT22;2169;49.086;9.284;2023-08-24T09:49:12;30.30;50.00
4312;DHT22;2169;49.086;9.284;2023-08-24T09:51:40;30.40;49.60
4312;DHT22;2169;49.086;9.284;2023-08-24T09:54:10;30.40;49.40
4312;DHT22;2169;49.086;9.284;2023-08-24T09:56:40;30.50;49.30
4312;DHT22;2169;49.086;9.284;2023-08-24T09:59:11;30.60;49.20
4312;DHT22;2169;49.086;9.284;2023-08-24T10:01:42;30.70;49.00
4312;DHT22;2169;49.086;9.284;2023-08-24T10:04:12;30.80;49.10
4312;DHT22;2169;49.086;9.284;2023-08-24T10:06:40;30.90;48.70
4312;DHT22;2169;49.086;9.284;2023-08-24T10:09:10;30.90;48.80
4312;DHT22;2169;49.086;9.284;2023-08-24T10:11:42;31.00;48.70
4312;DHT22;2169;49.086;9.284;2023-08-24T10:14:15;31.10;48.50
4312;DHT22;2169;49.086;9.284;2023-08-24T10:16:43;31.30;48.30
4312;DHT22;2169;49.086;9.284;2023-08-24T10:19:13;31.30;48.00
4312;DHT22;2169;49.086;9.284;2023-08-24T10:25:02;31.40;47.60
4312;DHT22;2169;49.086;9.284;2023-08-24T10:27:30;31.40;47.60
4312;DHT22;2169;49.086;9.284;2023-08-24T10:29:56;31.60;47.40
4312;DHT22;2169;49.086;9.284;2023-08-24T10:32:25;31.70;47.10
4312;DHT22;2169;49.086;9.284;2023-08-24T10:34:53;31.80;46.90
4312;DHT22;2169;49.086;9.284;2023-08-24T10:37:25;31.90;46.70
4312;DHT22;2169;49.086;9.284;2023-08-24T10:39:52;32.00;46.40
4312;DHT22;2169;49.086;9.284;2023-08-24T10:42:19;32.10;46.00
4312;DHT22;2169;49.086;9.284;2023-08-24T10:44:47;32.20;45.70
4312;DHT22;2169;49.086;9.284;2023-08-24T10:47:17;32.20;45.80
4312;DHT22;2169;49.086;9.284;2023-08-24T10:49:58;32.30;45.90
4312;DHT22;2169;49.086;9.284;2023-08-24T10:52:30;32.40;45.80
4312;DHT22;2169;49.086;9.284;2023-08-24T10:55:00;32.40;45.70
4312;DHT22;2169;49.086;9.284;2023-08-24T10:57:34;32.50;46.10
4312;DHT22;2169;49.086;9.284;2023-08-24T11:00:06;32.60;45.50
4312;DHT22;2169;49.086;9.284;2023-08-24T11:02:44;32.60;45.30
4312;DHT22;2169;49.086;9.284;2023-08-24T11:05:17;32.70;45.30
4312;DHT22;2169;49.086;9.284;2023-08-24T11:07:52;32.70;45.10
4312;DHT22;2169;49.086;9.284;2023-08-24T11:10:20;32.80;45.00
4312;DHT22;2169;49.086;9.284;2023-08-24T11:13:06;32.80;44.50
4312;DHT22;2169;49.086;9.284;2023-08-24T11:15:36;32.80;44.60
4312;DHT22;2169;49.086;9.284;2023-08-24T11:18:28;32.80;44.40
4312;DHT22;2169;49.086;9.284;2023-08-24T11:21:00;32.90;44.40
4312;DHT22;2169;49.086;9.284;2023-08-24T11:23:28;32.90;44.30
4312;DHT22;2169;49.086;9.284;2023-08-24T11:25:57;33.00;44.30
4312;DHT22;2169;49.086;9.284;2023-08-24T11:28:26;33.10;44.00
4312;DHT22;2169;49.086;9.284;2023-08-24T11:30:53;33.10;43.90
4312;DHT22;2169;49.086;9.284;2023-08-24T11:33:30;33.10;43.70
4312;DHT22;2169;49.086;9.284;2023-08-24T11:35:59;33.30;43.70
4312;DHT22;2169;49.086;9.284;2023-08-24T11:38:35;33.30;43.60
4312;DHT22;2169;49.086;9.284;2023-08-24T11:41:10;33.40;43.30
4312;DHT22;2169;49.086;9.284;2023-08-24T11:46:59;33.60;42.70
4312;DHT22;2169;49.086;9.284;2023-08-24T11:49:26;33.60;42.50
4312;DHT22;2169;49.086;9.284;2023-08-24T11:51:55;33.70;42.20
4312;DHT22;2169;49.086;9.284;2023-08-24T11:54:23;33.80;42.10
4312;DHT22;2169;49.086;9.284;2023-08-24T11:56:51;33.80;42.10
4312;DHT22;2169;49.086;9.284;2023-08-24T11:59:18;33.90;41.90
4312;DHT22;2169;49.086;9.284;2023-08-24T12:01:46;33.90;41.60
4312;DHT22;2169;49.086;9.284;2023-08-24T12:04:13;34.00;41.40
4312;DHT22;2169;49.086;9.284;2023-08-24T12:06:40;34.10;41.20
4312;DHT22;2169;49.086;9.284;2023-08-24T12:09:08;34.20;41.20
4312;DHT22;2169;49.086;9.284;2023-08-24T12:11:36;34.20;41.10
4312;DHT22;2169;49.086;9.284;2023-08-24T12:14:03;34.30;41.10
4312;DHT22;2169;49.086;9.284;2023-08-24T12:16:32;34.40;41.00
4312;DHT22;2169;49.086;9.284;2023-08-24T12:19:00;34.50;41.10
4312;DHT22;2169;49.086;9.284;2023-08-24T12:21:29;34.50;40.90
4312;DHT22;2169;49.086;9.284;2023-08-24T12:23:57;34.60;41.00
4312;DHT22;2169;49.086;9.284;2023-08-24T12:26:25;34.60;40.90
4312;DHT22;2169;49.086;9.284;2023-08-24T12:28:52;34.70;41.00
4312;DHT22;2169;49.086;9.284;2023-08-24T12:31:19;34.80;40.90
4312;DHT22;2169;49.086;9.284;2023-08-24T12:33:58;34.80;40.90
4312;DHT22;2169;49.086;9.284;2023-08-24T12:36:25;34.90;40.80
4312;DHT22;2169;49.086;9.284;2023-08-24T12:38:52;35.10;41.00
4312;DHT22;2169;49.086;9.284;2023-08-24T12:41:19;35.10;40.50
4312;DHT22;2169;49.086;9.284;2023-08-24T12:43:47;35.10;40.60
4312;DHT22;2169;49.086;9.284;2023-08-24T12:46:13;35.10;40.60
4312;DHT22;2169;49.086;9.284;2023-08-24T12:48:40;35.20;40.90
4312;DHT22;2169;49.086;9.284;2023-08-24T12:51:07;35.20;40.90
4312;DHT22;2169;49.086;9.284;2023-08-24T12:53:34;35.30;40.70
4312;DHT22;2169;49.086;9.284;2023-08-24T12:56:00;35.40;40.60
4312;DHT22;2169;49.086;9.284;2023-08-24T12:58:27;35.50;40.50
4312;DHT22;2169;49.086;9.284;2023-08-24T13:00:55;35.50;40.50
4312;DHT22;2169;49.086;9.284;2023-08-24T13:03:22;35.60;40.40
4312;DHT22;2169;49.086;9.284;2023-08-24T13:05:48;35.70;40.40
4312;DHT22;2169;49.086;9.284;2023-08-24T13:08:15;35.70;40.20
4312;DHT22;2169;49.086;9.284;2023-08-24T13:10:42;35.70;40.10
4312;DHT22;2169;49.086;9.284;2023-08-24T13:13:09;35.80;40.20
4312;DHT22;2169;49.086;9.284;2023-08-24T13:15:35;35.90;40.10
4312;DHT22;2169;49.086;9.284;2023-08-24T13:18:04;35.80;40.00
4312;DHT22;2169;49.086;9.284;2023-08-24T13:20:30;35.90;39.90
4312;DHT22;2169;49.086;9.284;2023-08-24T13:22:57;36.00;40.00
4312;DHT22;2169;49.086;9.284;2023-08-24T13:25:24;36.00;39.90
4312;DHT22;2169;49.086;9.284;2023-08-24T13:27:51;36.00;39.90
4312;DHT22;2169;49.086;9.284;2023-08-24T13:30:18;36.10;40.00
4312;DHT22;2169;49.086;9.284;2023-08-24T13:32:45;36.10;39.70
4312;DHT22;2169;49.086;9.284;2023-08-24T13:35:13;36.20;39.70
4312;DHT22;2169;49.086;9.284;2023-08-24T13:37:40;36.20;39.60
4312;DHT22;2169;49.086;9.284;2023-08-24T13:40:07;36.20;39.60
4312;DHT22;2169;49.086;9.284;2023-08-24T13:42:34;36.30;39.40
4312;DHT22;2169;49.086;9.284;2023-08-24T13:45:01;36.30;39.40
4312;DHT22;2169;49.086;9.284;2023-08-24T13:47:28;36.40;39.40
4312;DHT22;2169;49.086;9.284;2023-08-24T13:49:55;36.40;39.30
4312;DHT22;2169;49.086;9.284;2023-08-24T13:52:23;36.40;39.30
4312;DHT22;2169;49.086;9.284;2023-08-24T13:54:50;36.40;39.20
4312;DHT22;2169;49.086;9.284;2023-08-24T13:57:16;36.50;39.30
4312;DHT22;2169;49.086;9.284;2023-08-24T13:59:43;36.50;39.10
4312;DHT22;2169;49.086;9.284;2023-08-24T14:02:10;36.60;39.10
4312;DHT22;2169;49.086;9.284;2023-08-24T14:04:38;36.60;39.10
4312;DHT22;2169;49.086;9.284;2023-08-24T14:07:04;36.60;39.10
4312;DHT22;2169;49.086;9.284;2023-08-24T14:09:33;36.70;39.80
4312;DHT22;2169;49.086;9.284;2023-08-24T14:11:59;36.70;39.00
4312;DHT22;2169;49.086;9.284;2023-08-24T14:14:26;36.60;38.90
4312;DHT22;2169;49.086;9.284;2023-08-24T14:16:56;36.70;39.00
4312;DHT22;2169;49.086;9.284;2023-08-24T14:19:23;36.70;38.90
4312;DHT22;2169;49.086;9.284;2023-08-24T14:21:51;36.60;38.90
4312;DHT22;2169;49.086;9.284;2023-08-24T14:24:17;36.70;38.90
4312;DHT22;2169;49.086;9.284;2023-08-24T14:26:45;36.60;38.70
4312;DHT22;2169;49.086;9.284;2023-08-24T14:29:12;36.70;38.90
4312;DHT22;2169;49.086;9.284;2023-08-24T14:31:39;36.70;39.00
4312;DHT22;2169;49.086;9.284;2023-08-24T14:34:06;36.70;39.10
4312;DHT22;2169;49.086;9.284;2023-08-24T14:36:33;36.70;39.10
4312;DHT22;2169;49.086;9.284;2023-08-24T14:39:00;36.70;39.00
4312;DHT22;2169;49.086;9.284;2023-08-24T14:41:27;36.70;39.00
4312;DHT22;2169;49.086;9.284;2023-08-24T14:43:55;36.60;38.90
4312;DHT22;2169;49.086;9.284;2023-08-24T14:46:21;36.50;39.00
4312;DHT22;2169;49.086;9.284;2023-08-24T14:48:48;36.40;39.10
4312;DHT22;2169;49.086;9.284;2023-08-24T14:51:15;36.40;39.30
4312;DHT22;2169;49.086;9.284;2023-08-24T14:53:41;36.40;39.40
4312;DHT22;2169;49.086;9.284;2023-08-24T14:56:09;36.30;39.50
4312;DHT22;2169;49.086;9.284;2023-08-24T14:58:36;36.20;39.60
4312;DHT22;2169;49.086;9.284;2023-08-24T15:01:04;36.20;39.70
4312;DHT22;2169;49.086;9.284;2023-08-24T15:03:31;36.10;39.80
4312;DHT22;2169;49.086;9.284;2023-08-24T15:05:59;36.00;39.80
4312;DHT22;2169;49.086;9.284;2023-08-24T15:08:27;36.00;40.00
4312;DHT22;2169;49.086;9.284;2023-08-24T15:10:55;35.90;40.00
4312;DHT22;2169;49.086;9.284;2023-08-24T15:13:22;35.80;40.10
4312;DHT22;2169;49.086;9.284;2023-08-24T15:15:49;35.70;40.40
4312;DHT22;2169;49.086;9.284;2023-08-24T15:18:17;35.70;40.90
4312;DHT22;2169;49.086;9.284;2023-08-24T15:20:44;35.80;42.00
4312;DHT22;2169;49.086;9.284;2023-08-24T15:23:20;35.60;42.30
4312;DHT22;2169;49.086;9.284;2023-08-24T15:25:47;35.80;43.20
4312;DHT22;2169;49.086;9.284;2023-08-24T15:28:14;35.90;44.60
4312;DHT22;2169;49.086;9.284;2023-08-24T15:30:40;35.60;44.80
4312;DHT22;2169;49.086;9.284;2023-08-24T15:33:07;35.30;45.00
4312;DHT22;2169;49.086;9.284;2023-08-24T15:35:40;34.90;45.30
4312;DHT22;2169;49.086;9.284;2023-08-24T15:38:07;34.50;45.80
4312;DHT22;2169;49.086;9.284;2023-08-24T15:40:34;34.10;46.50
4312;DHT22;2169;49.086;9.284;2023-08-24T15:43:01;33.80;47.60
4312;DHT22;2169;49.086;9.284;2023-08-24T15:45:29;33.50;48.60
4312;DHT22;2169;49.086;9.284;2023-08-24T15:47:56;33.30;49.10
4312;DHT22;2169;49.086;9.284;2023-08-24T15:50:23;33.10;49.30
4312;DHT22;2169;49.086;9.284;2023-08-24T15:52:51;32.90;49.70
4312;DHT22;2169;49.086;9.284;2023-08-24T15:55:23;32.60;50.10
4312;DHT22;2169;49.086;9.284;2023-08-24T15:57:50;32.50;50.50
4312;DHT22;2169;49.086;9.284;2023-08-24T16:00:17;32.40;51.00
4312;DHT22;2169;49.086;9.284;2023-08-24T16:02:44;32.30;51.40
4312;DHT22;2169;49.086;9.284;2023-08-24T16:05:10;32.20;51.80
4312;DHT22;2169;49.086;9.284;2023-08-24T16:07:37;32.10;51.90
4312;DHT22;2169;49.086;9.284;2023-08-24T16:10:06;32.00;52.20
4312;DHT22;2169;49.086;9.284;2023-08-24T16:12:33;31.90;52.60